Time;durP1;ratioP1;P1;durP2;ratioP2;P2;SDS_P1;SDS_P2;PMS_P1;PMS_P2;Temp;Humidity;BMP_temperature;BMP_pressure;BME280_temperature;BME280_humidity;BME280_pressure;Samples;Min_cycle;Max_cycle;Signal;HPM_P1;HPM_P2
2022/10/15 00:00:33;;;;;;;44.35;28.77;;;;;;;12.07;100.00;100541.19;5092124;28;20062;-62
2022/10/15 00:02:59;;;;;;;40.85;28.33;;;;;;;12.10;100.00;100556.88;5093213;28;20046;-62
2022/10/15 00:05:24;;;;;;;45.50;29.48;;;;;;;12.01;100.00;100541.44;5093313;28;20506;-61
2022/10/15 00:07:49;;;;;;;44.80;30.10;;;;;;;11.74;100.00;100488.97;5091966;28;20032;-61
2022/10/15 00:10:15;;;;;;;47.05;30.27;;;;;;;12.10;100.00;100546.34;5093171;28;20032;-61
2022/10/15 00:12:41;;;;;;;44.63;30.60;;;;;;;11.87;100.00;100504.25;5091742;28;20047;-62
2022/10/15 00:15:07;;;;;;;50.45;32.45;;;;;;;11.99;100.00;100509.88;5091782;28;20035;-61
2022/10/15 00:17:33;;;;;;;46.33;32.60;;;;;;;12.24;100.00;100541.31;5093125;28;20028;-62
2022/10/15 00:19:59;;;;;;;46.70;32.75;;;;;;;12.29;100.00;100544.59;5091859;28;20040;-62
2022/10/15 00:22:24;;;;;;;51.15;31.42;;;;;;;12.31;100.00;100545.41;5092989;28;20141;-63
2022/10/15 00:24:49;;;;;;;48.90;32.33;;;;;;;12.28;100.00;100527.94;5092567;28;20542;-62
2022/10/15 00:27:15;;;;;;;48.85;31.10;;;;;;;12.38;100.00;100547.69;5092576;28;20509;-62
2022/10/15 00:29:40;;;;;;;48.13;31.02;;;;;;;12.01;100.00;100478.13;5092579;28;20153;-62
2022/10/15 00:32:06;;;;;;;51.90;32.88;;;;;;;12.22;100.00;100522.91;5092880;28;20028;-62
2022/10/15 00:34:31;;;;;;;53.85;33.15;;;;;;;12.34;100.00;100535.56;5092913;28;20406;-62
2022/10/15 00:36:57;;;;;;;46.20;32.25;;;;;;;12.34;100.00;100521.53;5092796;28;20043;-61
2022/10/15 00:39:22;;;;;;;47.75;32.47;;;;;;;12.36;100.00;100528.44;5092785;28;20036;-63
2022/10/15 00:41:49;;;;;;;48.85;32.35;;;;;;;12.37;100.00;100535.41;5092602;28;20064;-63
2022/10/15 00:44:20;;;;;;;47.70;32.90;;;;;;;12.38;100.00;100536.28;5092498;28;20036;-61
2022/10/15 00:46:47;;;;;;;44.05;31.10;;;;;;;12.02;100.00;100466.69;5092283;28;20030;-62
2022/10/15 00:49:27;;;;;;;49.38;32.38;;;;;;;12.40;100.00;100534.44;5092596;28;20120;-62
2022/10/15 00:52:40;;;;;;;48.05;32.00;;;;;;;12.32;100.00;100518.06;5092610;28;20046;-62
2022/10/15 00:55:10;;;;;;;46.42;32.47;;;;;;;12.34;100.00;100516.25;5076913;28;20066;-62
2022/10/15 00:57:35;;;;;;;48.22;33.20;;;;;;;12.05;100.00;100466.53;5092541;28;20122;-63
2022/10/15 01:00:05;;;;;;;45.67;31.83;;;;;;;12.00;100.00;100463.22;5092456;28;20106;-62
2022/10/15 01:02:31;;;;;;;53.97;33.53;;;;;;;12.40;100.00;100531.81;5074214;28;20088;-62
2022/10/15 01:04:56;;;;;;;51.15;33.20;;;;;;;12.43;100.00;100533.44;5092108;28;20397;-63
2022/10/15 01:07:22;;;;;;;50.88;33.47;;;;;;;12.08;100.00;100455.84;5092463;28;20465;-62
2022/10/15 01:09:47;;;;;;;43.60;32.67;;;;;;;12.48;100.00;100518.25;5090932;28;20431;-63
2022/10/15 01:12:21;;;;;;;50.63;33.60;;;;;;;12.13;100.00;100457.34;5092627;28;20110;-62
2022/10/15 01:15:08;;;;;;;50.22;34.67;;;;;;;12.55;100.00;100536.38;5092116;28;20491;-63
2022/10/15 01:17:47;;;;;;;51.58;35.17;;;;;;;12.55;100.00;100515.25;5090839;28;20039;-62
2022/10/15 01:20:31;;;;;;;49.35;33.13;;;;;;;12.56;100.00;100527.53;5090915;28;20085;-61
2022/10/15 01:23:13;;;;;;;47.60;33.97;;;;;;;12.46;100.00;100497.22;5091872;28;20607;-63
2022/10/15 01:25:47;;;;;;;51.15;34.10;;;;;;;12.48;100.00;100505.91;5090400;28;20048;-62
2022/10/15 01:28:24;;;;;;;50.58;32.65;;;;;;;12.35;100.00;100495.03;5092377;28;20421;-63
2022/10/15 01:30:58;;;;;;;46.60;34.08;;;;;;;12.36;100.00;100509.09;5091975;28;20032;-62
2022/10/15 01:33:41;;;;;;;49.05;34.63;;;;;;;12.34;100.00;100500.41;5090642;28;20043;-62
2022/10/15 01:36:39;;;;;;;49.45;35.00;;;;;;;12.28;100.00;100490.13;5073682;28;20444;-62
2022/10/15 01:39:14;;;;;;;55.72;36.85;;;;;;;12.28;100.00;100503.31;5090673;28;20056;-63
2022/10/15 01:41:43;;;;;;;52.17;37.55;;;;;;;12.24;100.00;100481.47;5090779;28;20028;-62
2022/10/15 01:44:13;;;;;;;52.25;36.28;;;;;;;12.03;100.00;100447.25;5090574;28;20032;-63
2022/10/15 01:46:47;;;;;;;54.22;36.58;;;;;;;11.92;100.00;100429.28;5090588;28;20028;-63
2022/10/15 01:49:15;;;;;;;55.40;37.33;;;;;;;11.95;100.00;100426.50;5090668;28;20028;-62
2022/10/15 01:51:42;;;;;;;54.70;36.38;;;;;;;12.16;100.00;100475.69;5090627;28;20039;-64
2022/10/15 01:54:10;;;;;;;54.75;37.67;;;;;;;11.92;100.00;100428.44;5090517;28;20056;-63
2022/10/15 01:56:36;;;;;;;58.95;38.03;;;;;;;12.15;100.00;100463.41;5090491;28;20032;-61
2022/10/15 01:59:03;;;;;;;56.55;39.83;;;;;;;12.16;100.00;100474.84;5093710;28;20384;-62
2022/10/15 02:01:28;;;;;;;59.63;39.45;;;;;;;11.82;100.00;100412.19;5094757;28;20028;-63
2022/10/15 02:03:53;;;;;;;63.28;40.78;;;;;;;12.12;100.00;100470.59;5095840;28;20051;-62
2022/10/15 02:06:23;;;;;;;61.70;41.15;;;;;;;12.01;100.00;100468.44;5095824;28;20028;-62
2022/10/15 02:09:26;;;;;;;64.25;41.28;;;;;;;12.01;100.00;100465.81;5094336;28;20425;-63
2022/10/15 02:12:15;;;;;;;59.97;39.10;;;;;;;11.98;100.00;100475.63;5095713;28;20040;-62
2022/10/15 02:14:46;;;;;;;64.45;41.97;;;;;;;11.93;100.00;100460.03;5095283;28;20028;-62
2022/10/15 02:17:13;;;;;;;66.13;41.30;;;;;;;11.63;100.00;100427.91;5095580;28;20032;-63
2022/10/15 02:19:42;;;;;;;73.85;42.30;;;;;;;11.83;100.00;100474.53;5095486;28;20032;-62
2022/10/15 02:22:24;;;;;;;62.45;41.40;;;;;;;11.77;100.00;100454.53;5093934;28;20032;-62
2022/10/15 02:24:54;;;;;;;62.58;42.63;;;;;;;11.26;100.00;100386.44;5095219;28;20051;-62
2022/10/15 02:27:20;;;;;;;69.33;43.57;;;;;;;11.44;100.00;100413.78;5094255;28;20115;-63
2022/10/15 02:29:46;;;;;;;75.88;46.53;;;;;;;11.23;100.00;100375.19;5094000;28;20373;-63
2022/10/15 02:32:12;;;;;;;73.82;47.22;;;;;;;11.29;100.00;100380.19;5095119;28;20036;-63
2022/10/15 02:34:38;;;;;;;74.10;45.75;;;;;;;11.44;100.00;100392.69;5093685;28;20491;-62
2022/10/15 02:37:04;;;;;;;68.97;43.97;;;;;;;11.31;100.00;100380.97;5093623;28;20020;-63
2022/10/15 02:39:30;;;;;;;72.57;45.65;;;;;;;11.49;100.00;100411.81;5076997;28;20456;-63
2022/10/15 02:41:56;;;;;;;73.93;43.60;;;;;;;11.68;100.00;100443.50;5095003;28;20109;-63
2022/10/15 02:44:21;;;;;;;73.95;46.67;;;;;;;11.26;100.00;100364.50;5076901;28;20036;-64
2022/10/15 02:46:46;;;;;;;77.93;46.70;;;;;;;11.64;100.00;100440.16;5094791;28;20043;-62
2022/10/15 02:49:12;;;;;;;75.00;46.22;;;;;;;11.18;100.00;100363.97;5093403;28;20395;-64
2022/10/15 02:51:37;;;;;;;82.68;47.58;;;;;;;11.49;100.00;100429.41;5095161;28;20032;-63
2022/10/15 02:54:04;;;;;;;76.68;46.00;;;;;;;11.16;100.00;100377.22;5094966;28;20074;-63
2022/10/15 02:56:30;;;;;;;84.82;48.55;;;;;;;11.09;100.00;100352.03;5093532;28;20032;-63
2022/10/15 02:58:56;;;;;;;82.50;49.10;;;;;;;11.53;100.00;100417.81;5093371;28;20055;-63
2022/10/15 03:01:21;;;;;;;82.88;48.35;;;;;;;11.28;100.00;100360.88;5094510;28;20039;-63
2022/10/15 03:03:46;;;;;;;77.50;47.22;;;;;;;11.27;100.00;100360.94;5093171;28;20439;-62
2022/10/15 03:06:12;;;;;;;78.75;47.72;;;;;;;11.53;100.00;100410.75;5094677;28;20028;-63
2022/10/15 03:08:37;;;;;;;82.85;49.05;;;;;;;11.30;100.00;100385.38;5076149;28;20029;-63
2022/10/15 03:11:02;;;;;;;83.95;47.75;;;;;;;11.42;100.00;100413.00;5094568;28;20035;-63
2022/10/15 03:13:28;;;;;;;85.28;49.20;;;;;;;11.07;100.00;100363.56;5093073;28;20399;-62
2022/10/15 03:15:57;;;;;;;89.97;50.17;;;;;;;11.34;100.00;100412.47;5094728;28;20032;-62
2022/10/15 03:18:22;;;;;;;90.07;48.72;;;;;;;11.36;100.00;100410.63;5096640;28;20524;-63
2022/10/15 03:20:55;;;;;;;91.00;51.63;;;;;;;11.35;100.00;100418.59;5093109;28;20073;-63
2022/10/15 03:23:21;;;;;;;86.93;49.75;;;;;;;11.28;100.00;100405.69;5094384;28;20063;-63
2022/10/15 03:25:46;;;;;;;95.43;53.22;;;;;;;11.35;100.00;100406.28;5093826;28;20056;-61
2022/10/15 03:28:12;;;;;;;92.03;51.78;;;;;;;11.44;100.00;100410.31;5076229;28;20490;-62
2022/10/15 03:30:37;;;;;;;94.88;50.75;;;;;;;11.37;100.00;100395.66;5093962;28;20105;-63
2022/10/15 03:33:02;;;;;;;92.30;51.25;;;;;;;11.32;100.00;100392.38;5093766;28;20028;-63
2022/10/15 03:35:28;;;;;;;97.28;51.47;;;;;;;11.38;100.00;100395.63;5092794;28;20163;-62
2022/10/15 03:37:53;;;;;;;98.72;53.50;;;;;;;11.26;100.00;100385.59;5092507;28;20040;-62
2022/10/15 03:40:18;;;;;;;92.65;49.80;;;;;;;11.14;100.00;100383.47;5093918;28;20032;-63
2022/10/15 03:42:49;;;;;;;95.68;51.67;;;;;;;11.12;100.00;100382.69;5092639;28;20081;-64
2022/10/15 03:45:14;;;;;;;92.55;48.47;;;;;;;11.19;100.00;100405.19;5092514;28;20058;-62
2022/10/15 03:47:40;;;;;;;95.75;49.30;;;;;;;11.09;100.00;100403.88;5093637;28;20475;-63
2022/10/15 03:50:05;;;;;;;91.55;52.17;;;;;;;10.89;100.00;100385.38;5093689;28;20066;-64
2022/10/15 03:52:30;;;;;;;100.18;52.88;;;;;;;11.06;100.00;100415.38;5092359;28;20063;-61
2022/10/15 03:54:56;;;;;;;108.38;53.08;;;;;;;11.06;100.00;100427.72;5093417;28;20036;-62
2022/10/15 03:57:21;;;;;;;98.68;52.42;;;;;;;10.80;100.00;100383.97;5093622;28;20384;-62
2022/10/15 03:59:46;;;;;;;103.97;56.47;;;;;;;11.10;100.00;100434.53;5093426;28;20047;-64
2022/10/15 04:02:12;;;;;;;104.15;53.53;;;;;;;10.83;100.00;100368.06;5093265;28;20036;-63
2022/10/15 04:04:37;;;;;;;112.55;58.10;;;;;;;11.16;100.00;100416.72;5093187;28;20097;-63
2022/10/15 04:07:02;;;;;;;111.30;56.03;;;;;;;11.28;100.00;100428.53;5093149;28;20028;-64
2022/10/15 04:09:28;;;;;;;112.15;58.03;;;;;;;11.33;100.00;100421.28;5093349;28;20032;-63
2022/10/15 04:11:53;;;;;;;113.65;58.88;;;;;;;11.12;100.00;100378.25;5093225;28;20032;-62
2022/10/15 04:14:19;;;;;;;106.30;59.40;;;;;;;11.17;100.00;100372.81;5093399;28;20032;-62
2022/10/15 04:16:44;;;;;;;117.35;61.10;;;;;;;11.24;100.00;100374.25;5093020;28;20471;-64
2022/10/15 04:19:09;;;;;;;112.00;60.05;;;;;;;11.63;100.00;100435.81;5093295;28;20043;-63
2022/10/15 04:21:35;;;;;;;108.43;59.75;;;;;;;11.69;100.00;100427.66;5092577;28;20032;-61
2022/10/15 04:24:00;;;;;;;104.28;57.70;;;;;;;11.77;100.00;100422.03;5093057;28;20079;-62
2022/10/15 04:26:25;;;;;;;97.75;56.40;;;;;;;11.52;100.00;100371.28;5093047;28;20055;-63
2022/10/15 04:28:51;;;;;;;103.18;57.00;;;;;;;11.68;100.00;100377.59;5091566;28;20123;-62
2022/10/15 04:31:16;;;;;;;99.80;56.88;;;;;;;11.64;100.00;100363.72;5074587;28;20118;-62
2022/10/15 04:33:41;;;;;;;102.20;56.78;;;;;;;12.01;100.00;100420.97;5093010;28;20056;-61
2022/10/15 04:36:11;;;;;;;99.80;55.65;;;;;;;12.02;100.00;100408.63;5092807;28;20044;-62
2022/10/15 04:38:36;;;;;;;97.55;55.92;;;;;;;11.99;100.00;100387.69;5091659;28;20459;-62
2022/10/15 04:41:06;;;;;;;98.60;56.15;;;;;;;12.09;100.00;100412.69;5092503;28;20042;-62
2022/10/15 04:43:32;;;;;;;112.03;56.45;;;;;;;12.07;100.00;100409.28;5092681;28;20075;-61
2022/10/15 04:45:58;;;;;;;100.63;56.78;;;;;;;11.67;100.00;100350.41;5092478;28;20036;-63
2022/10/15 04:48:26;;;;;;;95.88;54.83;;;;;;;12.02;100.00;100409.50;5091369;28;20123;-62
2022/10/15 04:50:51;;;;;;;102.38;55.95;;;;;;;11.99;100.00;100407.00;5092410;28;20036;-62
2022/10/15 04:53:16;;;;;;;97.40;55.83;;;;;;;11.70;100.00;100360.81;5092629;28;20372;-62
2022/10/15 04:55:42;;;;;;;95.57;55.03;;;;;;;12.03;100.00;100405.91;5092480;28;20410;-62
2022/10/15 04:58:07;;;;;;;93.30;55.88;;;;;;;11.85;100.00;100369.81;5092225;28;20406;-61
2022/10/15 05:00:32;;;;;;;99.82;55.70;;;;;;;11.65;100.00;100335.53;5091105;28;20036;-62
2022/10/15 05:02:58;;;;;;;107.28;55.92;;;;;;;11.99;100.00;100396.44;5092590;28;20543;-62
2022/10/15 05:05:23;;;;;;;102.57;56.92;;;;;;;11.52;100.00;100313.31;5091215;28;20061;-63
2022/10/15 05:07:48;;;;;;;97.43;54.95;;;;;;;11.97;100.00;100382.44;5092192;28;20445;-63
2022/10/15 05:10:14;;;;;;;100.90;54.35;;;;;;;11.92;100.00;100389.72;5092347;28;20028;-62
2022/10/15 05:12:39;;;;;;;96.80;54.95;;;;;;;11.66;100.00;100353.94;5092140;28;20123;-62
2022/10/15 05:15:05;;;;;;;95.88;54.22;;;;;;;11.52;100.00;100339.66;5091848;28;20036;-62
2022/10/15 05:17:30;;;;;;;108.88;56.03;;;;;;;11.80;100.00;100393.78;5092227;28;20048;-62
2022/10/15 05:19:56;;;;;;;105.20;57.72;;;;;;;11.78;100.00;100403.53;5090785;28;20032;-63
2022/10/15 05:22:21;;;;;;;104.05;54.90;;;;;;;11.40;100.00;100337.56;5092238;28;20176;-62
2022/10/15 05:24:46;;;;;;;105.75;55.75;;;;;;;11.61;100.00;100399.88;5092106;28;20052;-63
2022/10/15 05:27:11;;;;;;;108.97;57.72;;;;;;;11.53;100.00;100388.84;5092176;28;20028;-63
2022/10/15 05:29:38;;;;;;;117.72;58.88;;;;;;;11.32;100.00;100359.81;5092162;28;20070;-63
2022/10/15 05:32:04;;;;;;;113.75;58.10;;;;;;;11.11;100.00;100329.13;5107888;28;20440;-62
2022/10/15 05:34:29;;;;;;;115.55;56.65;;;;;;;11.35;100.00;100381.72;5096115;28;20158;-63
2022/10/15 05:36:55;;;;;;;102.25;56.05;;;;;;;10.97;100.00;100328.00;5096080;28;20073;-62
2022/10/15 05:39:20;;;;;;;120.03;59.90;;;;;;;11.31;100.00;100380.97;5096191;28;20036;-61
2022/10/15 05:41:46;;;;;;;115.72;59.92;;;;;;;11.37;100.00;100388.63;5096053;28;20043;-62
2022/10/15 05:44:11;;;;;;;118.43;60.00;;;;;;;11.05;100.00;100325.91;5094627;28;20061;-62
2022/10/15 05:46:36;;;;;;;128.98;64.50;;;;;;;11.38;100.00;100385.06;5096218;28;20043;-62
2022/10/15 05:49:02;;;;;;;127.72;61.70;;;;;;;11.39;100.00;100373.59;5111834;28;20032;-62
2022/10/15 05:51:27;;;;;;;124.13;61.33;;;;;;;11.37;100.00;100383.34;5096108;28;20040;-62
2022/10/15 05:53:57;;;;;;;121.95;60.45;;;;;;;11.42;100.00;100394.53;5095932;28;20156;-61
2022/10/15 05:56:22;;;;;;;138.50;63.22;;;;;;;11.14;100.00;100346.59;5095838;28;20070;-61
2022/10/15 05:58:48;;;;;;;128.23;62.72;;;;;;;11.46;100.00;100398.78;5094403;28;20055;-62
2022/10/15 06:01:13;;;;;;;134.98;62.17;;;;;;;10.88;100.00;100283.63;5095999;28;20111;-64
2022/10/15 06:03:40;;;;;;;147.50;66.07;;;;;;;11.64;100.00;100407.66;5095715;28;20035;-65
2022/10/15 06:06:15;;;;;;;131.00;62.40;;;;;;;11.72;100.00;100390.63;5094369;28;20519;-63
2022/10/15 06:08:41;;;;;;;133.07;60.83;;;;;;;11.51;100.00;100338.81;5095773;28;20475;-62
2022/10/15 06:11:07;;;;;;;127.10;59.42;;;;;;;11.88;100.00;100393.41;5095224;28;20032;-63
2022/10/15 06:13:32;;;;;;;122.85;59.65;;;;;;;11.61;100.00;100323.44;5095666;28;20123;-63
2022/10/15 06:15:58;;;;;;;119.38;56.85;;;;;;;12.05;100.00;100397.94;5095369;28;20055;-63
2022/10/15 06:18:23;;;;;;;121.85;56.05;;;;;;;11.73;100.00;100322.94;5094101;28;20119;-64
2022/10/15 06:20:52;;;;;;;105.75;51.03;;;;;;;11.80;100.00;100326.97;5095031;28;20032;-63
2022/10/15 06:23:18;;;;;;;110.03;52.47;;;;;;;12.14;100.00;100379.06;5094133;28;20039;-65
2022/10/15 06:25:43;;;;;;;102.38;48.90;;;;;;;11.95;100.00;100335.97;5094115;28;20055;-64
2022/10/15 06:28:09;;;;;;;110.32;50.15;;;;;;;11.82;100.00;100315.44;5094995;28;20402;-62
2022/10/15 06:30:34;;;;;;;99.68;48.47;;;;;;;11.84;100.00;100315.38;5094077;28;20188;-62
2022/10/15 06:33:00;;;;;;;97.18;48.85;;;;;;;12.20;100.00;100370.88;5095120;28;20077;-63
2022/10/15 06:35:25;;;;;;;92.90;46.95;;;;;;;11.87;100.00;100312.59;5093853;28;20460;-63
2022/10/15 06:37:52;;;;;;;95.93;45.90;;;;;;;12.03;100.00;100344.38;5095105;28;20047;-62
2022/10/15 06:40:17;;;;;;;92.85;46.00;;;;;;;12.06;100.00;100366.22;5093799;28;20103;-63
2022/10/15 06:42:43;;;;;;;95.38;47.22;;;;;;;12.13;100.00;100377.34;5093683;28;20131;-63
2022/10/15 06:45:09;;;;;;;88.25;44.30;;;;;;;11.90;100.00;100328.28;5094566;28;20439;-64
2022/10/15 06:47:35;;;;;;;82.18;42.03;;;;;;;12.35;100.00;100396.53;5094437;28;20144;-63
2022/10/15 06:50:00;;;;;;;81.88;43.33;;;;;;;12.41;100.00;100385.69;5094578;28;20093;-63
2022/10/15 06:52:28;;;;;;;92.90;43.65;;;;;;;12.41;100.00;100369.84;5093356;28;20471;-64
2022/10/15 06:54:53;;;;;;;91.25;44.22;;;;;;;12.51;100.00;100381.69;5094420;28;20036;-62
2022/10/15 06:57:19;;;;;;;83.72;41.97;;;;;;;12.55;100.00;100379.78;5094623;28;20123;-62
2022/10/15 06:59:44;;;;;;;87.80;43.58;;;;;;;12.61;100.00;100377.66;5094833;28;20039;-63
2022/10/15 07:02:10;;;;;;;90.65;42.25;;;;;;;12.21;100.00;100322.44;5079018;28;20045;-62
2022/10/15 07:04:35;;;;;;;84.50;41.67;;;;;;;12.66;100.00;100383.63;5110361;28;20063;-62
2022/10/15 07:07:01;;;;;;;83.65;42.53;;;;;;;12.71;100.00;100388.66;5094420;28;20467;-61
2022/10/15 07:09:26;;;;;;;91.97;43.78;;;;;;;12.73;100.00;100381.50;5075609;28;20522;-63
2022/10/15 07:11:52;;;;;;;90.60;42.50;;;;;;;12.76;100.00;100386.63;5093351;28;20028;-62
2022/10/15 07:14:17;;;;;;;93.15;44.42;;;;;;;12.79;100.00;100384.72;5096970;28;20503;-62
2022/10/15 07:16:42;;;;;;;97.97;44.95;;;;;;;12.82;100.00;100375.78;5091960;28;20181;-63
2022/10/15 07:19:08;;;;;;;106.28;46.97;;;;;;;12.86;100.00;100387.91;5079628;28;20059;-63
2022/10/15 07:21:33;;;;;;;102.32;45.95;;;;;;;12.56;100.00;100318.97;5093458;28;20036;-63
2022/10/15 07:23:59;;;;;;;108.30;47.85;;;;;;;12.56;100.00;100316.31;5090337;28;20032;-63
2022/10/15 07:26:28;;;;;;;112.28;49.15;;;;;;;12.89;100.00;100377.22;5094350;28;20052;-62
2022/10/15 07:28:53;;;;;;;108.15;48.97;;;;;;;12.90;100.00;100366.56;5094447;28;20035;-62
2022/10/15 07:31:19;;;;;;;111.53;50.55;;;;;;;12.94;100.00;100367.25;5093053;28;20036;-62
2022/10/15 07:33:44;;;;;;;104.05;48.47;;;;;;;12.95;100.00;100348.72;5094276;28;20028;-62
2022/10/15 07:36:11;;;;;;;100.18;45.88;;;;;;;12.98;100.00;100361.78;5094046;28;20044;-63
2022/10/15 07:38:38;;;;;;;88.28;44.60;;;;;;;12.89;100.00;100348.16;5109718;28;20055;-62
2022/10/15 07:41:05;;;;;;;79.43;39.03;;;;;;;12.98;100.00;100364.41;5093985;28;20429;-62
2022/10/15 07:43:30;;;;;;;78.53;40.17;;;;;;;12.76;100.00;100326.75;5094061;28;20036;-62
2022/10/15 07:45:56;;;;;;;74.43;38.95;;;;;;;13.03;100.00;100364.16;5092767;28;20032;-63
2022/10/15 07:48:21;;;;;;;76.30;39.30;;;;;;;12.59;100.00;100291.56;5094029;28;20071;-61
2022/10/15 07:50:53;;;;;;;78.88;40.30;;;;;;;12.90;100.00;100350.69;5092573;28;20105;-61
2022/10/15 07:53:18;;;;;;;81.65;41.22;;;;;;;13.10;100.00;100370.03;5077383;28;20048;-63
2022/10/15 07:55:44;;;;;;;83.15;41.88;;;;;;;13.11;100.00;100346.16;5073519;28;20040;-61
2022/10/15 07:58:09;;;;;;;91.18;43.72;;;;;;;13.20;100.00;100344.84;5073546;28;20043;-62
2022/10/15 08:00:34;;;;;;;86.93;42.58;;;;;;;12.65;100.00;100238.44;5076692;28;20069;-60
2022/10/15 08:03:00;;;;;;;90.88;42.67;;;;;;;13.31;100.00;100348.66;5073206;28;20036;-62
2022/10/15 08:05:25;;;;;;;88.05;44.80;;;;;;;13.40;100.00;100352.59;5092468;28;20039;-63
2022/10/15 08:07:50;;;;;;;100.78;47.38;;;;;;;13.14;100.00;100279.09;5084458;28;20040;-64
2022/10/15 08:10:17;;;;;;;97.43;47.50;;;;;;;13.55;100.00;100341.25;5088768;28;20589;-64
2022/10/15 08:12:42;;;;;;;93.53;44.00;;;;;;;13.41;100.00;100298.81;5074725;28;20068;-63
2022/10/15 08:15:08;;;;;;;102.53;47.00;;;;;;;13.72;100.00;100330.63;5071739;28;20118;-60
2022/10/15 08:17:33;;;;;;;97.78;47.40;;;;;;;13.70;100.00;100318.41;5089213;28;20032;-61
2022/10/15 08:19:59;;;;;;;97.57;46.40;;;;;;;13.94;100.00;100309.19;5089899;28;20036;-60
2022/10/15 08:22:24;;;;;;;89.15;44.08;;;;;;;14.31;100.00;100331.81;5082681;28;20044;-63
2022/10/15 08:24:51;;;;;;;82.07;44.08;;;;;;;14.43;100.00;100323.22;5070945;28;20052;-62
2022/10/15 08:27:16;;;;;;;75.68;41.92;;;;;;;14.41;100.00;100306.56;5072377;28;20032;-62
2022/10/15 08:29:41;;;;;;;69.82;39.75;;;;;;;14.24;100.00;100249.25;5072775;28;20116;-62
2022/10/15 08:32:07;;;;;;;68.60;39.50;;;;;;;14.84;100.00;100316.41;5090849;28;20157;-62
2022/10/15 08:34:32;;;;;;;54.83;38.88;;;;;;;14.91;100.00;100311.63;5083827;28;20441;-60
2022/10/15 08:36:58;;;;;;;58.88;37.35;;;;;;;15.01;100.00;100305.69;5092415;28;20043;-61
2022/10/15 08:39:23;;;;;;;53.55;36.83;;;;;;;15.01;100.00;100318.94;5074417;28;20483;-60
2022/10/15 08:42:00;;;;;;;55.42;36.72;;;;;;;15.06;100.00;100305.44;5092458;28;20035;-60
2022/10/15 08:44:47;;;;;;;47.20;35.35;;;;;;;15.19;100.00;100306.38;5092481;28;20036;-62
2022/10/15 08:47:25;;;;;;;44.65;33.85;;;;;;;15.22;100.00;100319.47;5091182;28;20056;-62
2022/10/15 08:49:53;;;;;;;47.60;33.88;;;;;;;14.83;100.00;100239.66;5086016;28;20383;-62
2022/10/15 08:52:25;;;;;;;37.55;29.45;;;;;;;15.34;100.00;100317.88;5096511;28;20081;-62
2022/10/15 08:54:52;;;;;;;37.03;30.65;;;;;;;15.41;100.00;100319.22;5071034;28;20067;-61
2022/10/15 08:57:38;;;;;;;34.72;29.55;;;;;;;15.46;100.00;100314.50;5071060;28;20028;-62
2022/10/15 09:00:24;;;;;;;32.10;28.67;;;;;;;15.56;100.00;100316.50;5075105;28;20434;-62
2022/10/15 09:03:08;;;;;;;33.65;28.58;;;;;;;15.26;100.00;100256.50;5090809;28;20115;-61
2022/10/15 09:05:46;;;;;;;29.38;25.83;;;;;;;15.54;100.00;100313.09;5105927;28;20044;-62
2022/10/15 09:08:27;;;;;;;33.75;26.13;;;;;;;15.56;100.00;100329.78;5091900;28;20108;-62
2022/10/15 09:11:04;;;;;;;28.73;25.77;;;;;;;15.07;100.00;100260.25;5091134;28;20031;-63
2022/10/15 09:13:39;;;;;;;30.13;26.80;;;;;;;15.31;100.00;100310.09;5091032;28;20485;-61
2022/10/15 09:16:11;;;;;;;29.70;26.60;;;;;;;15.06;100.00;100308.06;5087716;28;20040;-61
2022/10/15 09:18:37;;;;;;;29.55;26.45;;;;;;;14.98;100.00;100321.75;5070386;28;20119;-62
2022/10/15 09:21:06;;;;;;;28.70;25.10;;;;;;;14.25;100.00;100200.66;5070534;28;20541;-60
2022/10/15 09:23:32;;;;;;;29.30;25.45;;;;;;;14.57;100.00;100257.94;5070831;28;20048;-63
2022/10/15 09:26:28;;;;;;;30.80;25.77;;;;;;;14.90;100.00;100304.59;5071391;28;20508;-62
2022/10/15 09:29:12;;;;;;;30.45;26.30;;;;;;;14.92;100.00;100302.72;5071740;28;20125;-63
2022/10/15 09:31:54;;;;;;;26.48;23.40;;;;;;;14.91;100.00;100301.88;5087695;28;20035;-62
2022/10/15 09:34:30;;;;;;;28.38;25.38;;;;;;;14.92;100.00;100289.47;5071227;28;20471;-62
2022/10/15 09:36:59;;;;;;;27.65;24.15;;;;;;;14.97;100.00;100287.41;5070261;28;20037;-63
2022/10/15 09:39:47;;;;;;;28.75;24.20;;;;;;;14.97;100.00;100298.00;5077485;28;20052;-63
2022/10/15 09:42:34;;;;;;;28.98;23.80;;;;;;;14.97;100.00;100298.84;5070237;28;20033;-65
2022/10/15 09:45:02;;;;;;;27.15;23.00;;;;;;;14.89;100.00;100271.94;5071353;28;20379;-62
2022/10/15 09:47:33;;;;;;;24.23;19.67;;;;;;;14.97;100.00;100276.81;5070319;28;20040;-63
2022/10/15 09:49:59;;;;;;;24.83;21.63;;;;;;;15.05;100.00;100282.50;5070443;28;20044;-62
2022/10/15 09:52:56;;;;;;;25.23;20.73;;;;;;;14.80;100.00;100229.25;5072091;28;20543;-63
2022/10/15 09:55:59;;;;;;;25.40;20.42;;;;;;;15.11;100.00;100276.84;5071904;28;20127;-63
2022/10/15 09:58:27;;;;;;;23.90;19.10;;;;;;;15.15;100.00;100278.34;5071129;28;20098;-63
2022/10/15 10:01:02;;;;;;;27.27;21.35;;;;;;;14.87;100.00;100206.75;5070637;28;20020;-63
2022/10/15 10:03:30;;;;;;;23.98;18.92;;;;;;;15.25;100.00;100274.22;5070434;28;20071;-63
2022/10/15 10:06:03;;;;;;;21.52;16.55;;;;;;;15.21;100.00;100270.03;5070323;28;20536;-62
2022/10/15 10:08:53;;;;;;;19.20;16.33;;;;;;;15.09;100.00;100263.66;5070221;28;20472;-62
2022/10/15 10:11:19;;;;;;;20.70;16.48;;;;;;;14.99;100.00;100243.13;5071065;28;20123;-64
2022/10/15 10:13:50;;;;;;;21.95;17.48;;;;;;;15.24;100.00;100285.75;5087333;28;20037;-62
2022/10/15 10:16:17;;;;;;;18.00;15.35;;;;;;;15.24;100.00;100272.50;5086726;28;20120;-63
2022/10/15 10:18:49;;;;;;;20.33;15.82;;;;;;;15.07;100.00;100254.09;5072522;28;20029;-65
2022/10/15 10:21:32;;;;;;;16.88;13.88;;;;;;;15.18;100.00;100273.72;5073767;28;20128;-62
2022/10/15 10:24:18;;;;;;;19.45;14.07;;;;;;;15.16;100.00;100272.09;5073922;28;20028;-62
2022/10/15 10:26:44;;;;;;;16.90;14.15;;;;;;;15.08;100.00;100274.38;5073837;28;20051;-62
2022/10/15 10:29:17;;;;;;;19.80;15.88;;;;;;;14.95;100.00;100266.28;5074831;28;20461;-63
2022/10/15 10:31:43;;;;;;;19.90;14.25;;;;;;;14.99;100.00;100283.72;5090753;28;20471;-64
2022/10/15 10:34:15;;;;;;;17.65;14.00;;;;;;;14.72;100.00;100236.78;5076658;28;20097;-63
2022/10/15 10:36:40;;;;;;;15.95;12.13;;;;;;;14.94;100.00;100277.00;5074762;28;20123;-62
2022/10/15 10:39:09;;;;;;;14.32;12.25;;;;;;;14.95;100.00;100265.44;5074968;28;20113;-64
2022/10/15 10:41:54;;;;;;;16.17;12.60;;;;;;;14.93;100.00;100277.94;5074869;28;20040;-63
2022/10/15 10:44:22;;;;;;;16.27;12.95;;;;;;;14.84;100.00;100251.97;5073919;28;20403;-65
2022/10/15 10:47:23;;;;;;;14.52;12.13;;;;;;;14.98;100.00;100266.09;5074598;28;20032;-64
2022/10/15 10:49:53;;;;;;;12.35;10.77;;;;;;;14.99;100.00;100262.53;5012392;28;20092;-62
2022/10/15 10:52:20;;;;;;;12.82;9.80;;;;;;;14.99;100.00;100278.44;5062315;28;20059;-65
2022/10/15 10:54:48;;;;;;;12.80;9.43;;;;;;;14.66;100.00;100206.22;5074346;28;20404;-63
2022/10/15 10:57:18;;;;;;;10.82;8.90;;;;;;;15.01;100.00;100262.41;5073953;28;20036;-63
2022/10/15 10:59:48;;;;;;;12.48;9.93;;;;;;;14.69;100.00;100213.13;5074633;28;20021;-63
2022/10/15 11:02:13;;;;;;;11.68;9.07;;;;;;;14.98;100.00;100258.16;5073721;28;20250;-64
2022/10/15 11:04:39;;;;;;;12.25;9.60;;;;;;;14.97;100.00;100258.25;5074497;28;20155;-64
2022/10/15 11:07:37;;;;;;;15.52;12.25;;;;;;;14.95;100.00;100246.88;5074322;28;20490;-62